createdAt,value
2019-05-18T00:00:53.522Z,1006.12
2019-05-18T00:01:53.512Z,1006.12
2019-05-18T00:02:53.502Z,1006.13
2019-05-18T00:03:53.535Z,1006.14
2019-05-18T00:04:53.494Z,1006.09
2019-05-18T00:05:53.485Z,1006.12
2019-05-18T00:06:53.454Z,1006.09
2019-05-18T00:07:53.456Z,1006.08
2019-05-18T00:08:53.428Z,1006.05
2019-05-18T00:09:53.447Z,1006.02
2019-05-18T00:10:53.412Z,1006.03
2019-05-18T00:11:53.401Z,1006.00
2019-05-18T00:12:53.385Z,1006.05
2019-05-18T00:13:53.376Z,1006.02
2019-05-18T00:14:53.362Z,1006.09
2019-05-18T00:15:53.375Z,1006.04
2019-05-18T00:16:53.341Z,1006.06
2019-05-18T00:17:53.341Z,1006.04
2019-05-18T00:18:53.339Z,1006.07
2019-05-18T00:19:53.320Z,1005.99
2019-05-18T00:20:53.309Z,1006.11
2019-05-18T00:21:53.285Z,1006.10
2019-05-18T00:22:53.280Z,1006.04
2019-05-18T00:23:53.263Z,1006.05
2019-05-18T00:24:53.254Z,1006.03
2019-05-18T00:25:53.661Z,1006.06
2019-05-18T00:26:53.232Z,1006.05
2019-05-18T00:27:53.219Z,1006.06
2019-05-18T00:28:53.231Z,1006.09
2019-05-18T00:29:53.208Z,1006.04
2019-05-18T00:30:53.220Z,1006.02
2019-05-18T00:31:53.174Z,1005.99
2019-05-18T00:32:53.173Z,1006.07
2019-05-18T00:33:53.168Z,1006.04
2019-05-18T00:34:53.141Z,1006.06
2019-05-18T00:35:53.149Z,1006.11
2019-05-18T00:36:53.143Z,1006.07
2019-05-18T00:37:53.105Z,1006.02
2019-05-18T00:38:53.109Z,1006.06
2019-05-18T00:39:53.100Z,1006.05
2019-05-18T00:40:53.083Z,1006.10
2019-05-18T00:41:53.083Z,1006.04
2019-05-18T00:42:53.082Z,1006.08
2019-05-18T00:43:53.045Z,1006.07
2019-05-18T00:44:53.035Z,1006.08
2019-05-18T00:45:53.026Z,1006.10
2019-05-18T00:46:53.034Z,1006.06
2019-05-18T00:47:53.005Z,1006.10
2019-05-18T00:48:52.991Z,1006.08
2019-05-18T00:49:52.989Z,1006.03
2019-05-18T00:50:52.969Z,1006.05
2019-05-18T00:51:52.979Z,1006.04
2019-05-18T00:52:52.947Z,1006.06
2019-05-18T00:53:52.932Z,1006.06
2019-05-18T00:54:52.933Z,1006.02
2019-05-18T00:55:52.977Z,1006.03
2019-05-18T00:56:52.918Z,1006.02
2019-05-18T00:57:52.891Z,1006.05
2019-05-18T00:58:52.889Z,1005.99
2019-05-18T00:59:52.872Z,1006.00
2019-05-18T01:00:52.870Z,1006.00
2019-05-18T01:01:52.864Z,1005.97
2019-05-18T01:02:52.859Z,1006.00
2019-05-18T01:03:52.839Z,1006.02
2019-05-18T01:04:52.819Z,1005.99
2019-05-18T01:05:52.810Z,1005.98
2019-05-18T01:06:52.823Z,1005.99
2019-05-18T01:07:52.792Z,1005.96
2019-05-18T01:08:52.772Z,1005.98
2019-05-18T01:09:52.756Z,1005.95
2019-05-18T01:10:52.760Z,1005.94
2019-05-18T01:11:52.734Z,1005.92
2019-05-18T01:12:52.742Z,1005.92
2019-05-18T01:13:52.712Z,1005.91
2019-05-18T01:14:52.709Z,1005.95
2019-05-18T01:15:52.696Z,1005.94
2019-05-18T01:16:52.686Z,1005.96
2019-05-18T01:17:57.467Z,1005.96
2019-05-18T01:18:53.660Z,1005.93
2019-05-18T01:19:52.652Z,1005.98
2019-05-18T01:20:52.634Z,1005.92
2019-05-18T01:21:52.723Z,1005.97
2019-05-18T01:22:52.633Z,1006.00
2019-05-18T01:23:52.611Z,1006.00
2019-05-18T01:24:52.627Z,1005.99
2019-05-18T01:25:52.600Z,1006.01
2019-05-18T01:26:52.592Z,1006.04
2019-05-18T01:27:52.664Z,1005.96
2019-05-18T01:28:52.558Z,1005.89
2019-05-18T01:29:52.545Z,1005.94
2019-05-18T01:30:52.532Z,1005.94
2019-05-18T01:31:52.520Z,1005.96
2019-05-18T01:32:52.529Z,1005.90
2019-05-18T01:33:52.510Z,1005.90
2019-05-18T01:34:52.505Z,1005.87
2019-05-18T01:35:52.475Z,1005.89
2019-05-18T01:36:52.461Z,1005.91
2019-05-18T01:37:52.491Z,1005.89
2019-05-18T01:38:52.450Z,1005.88
2019-05-18T01:39:52.441Z,1005.93
2019-05-18T01:40:52.418Z,1005.90
2019-05-18T01:41:52.409Z,1005.99
2019-05-18T01:42:52.438Z,1005.99
2019-05-18T01:43:52.387Z,1005.97
2019-05-18T01:44:52.394Z,1006.01
2019-05-18T01:45:52.373Z,1006.02
2019-05-18T01:46:52.361Z,1006.01
2019-05-18T01:47:52.359Z,1005.99
2019-05-18T01:48:52.332Z,1005.98
2019-05-18T01:49:52.332Z,1006.02
2019-05-18T01:50:52.320Z,1006.01
2019-05-18T01:51:52.299Z,1006.04
2019-05-18T01:52:52.320Z,1006.02
2019-05-18T01:53:52.288Z,1006.00
2019-05-18T01:54:52.271Z,1006.02
2019-05-18T01:55:52.260Z,1005.90
2019-05-18T01:56:52.252Z,1005.97
2019-05-18T01:57:52.259Z,1005.95
2019-05-18T01:58:52.225Z,1005.92
2019-05-18T01:59:52.212Z,1005.95
2019-05-18T02:00:52.205Z,1006.00
2019-05-18T02:01:52.202Z,1005.97
2019-05-18T02:02:52.195Z,1005.95
2019-05-18T02:03:52.187Z,1005.96
2019-05-18T02:04:52.206Z,1005.95
2019-05-18T02:05:52.163Z,1005.93
2019-05-18T02:06:52.163Z,1005.95
2019-05-18T02:07:52.144Z,1005.97
2019-05-18T02:08:52.122Z,1005.97
2019-05-18T02:09:52.103Z,1005.97
2019-05-18T02:10:52.111Z,1005.96
2019-05-18T02:11:52.086Z,1005.95
2019-05-18T02:12:52.090Z,1005.99
2019-05-18T02:13:52.064Z,1006.03
2019-05-18T02:14:52.065Z,1006.00
2019-05-18T02:15:52.035Z,1006.00
2019-05-18T02:16:52.046Z,1005.96
2019-05-18T02:17:52.042Z,1006.10
2019-05-18T02:18:52.010Z,1006.03
2019-05-18T02:19:52.017Z,1006.04
2019-05-18T02:20:51.988Z,1006.05
2019-05-18T02:21:51.979Z,1006.03
2019-05-18T02:22:51.960Z,1006.02
2019-05-18T02:23:51.975Z,1006.04
2019-05-18T02:24:51.959Z,1006.01
2019-05-18T02:25:51.930Z,1006.07
2019-05-18T02:26:51.925Z,1006.08
2019-05-18T02:27:51.942Z,1006.06
2019-05-18T02:28:51.909Z,1006.12
2019-05-18T02:29:51.880Z,1006.06
2019-05-18T02:30:51.884Z,1006.03
2019-05-18T02:31:51.886Z,1006.07
2019-05-18T02:32:51.857Z,1006.07
2019-05-18T02:33:51.882Z,1006.00
2019-05-18T02:34:51.835Z,1006.02
2019-05-18T02:35:51.831Z,1006.01
2019-05-18T02:36:51.827Z,1006.02
2019-05-18T02:37:51.797Z,1006.02
2019-05-18T02:38:51.805Z,1005.96
2019-05-18T02:39:51.796Z,1005.98
2019-05-18T02:40:51.765Z,1006.02
2019-05-18T02:41:51.757Z,1006.00
2019-05-18T02:42:51.747Z,1005.98
2019-05-18T02:43:51.757Z,1005.95
2019-05-18T02:44:51.724Z,1005.95
2019-05-18T02:45:51.720Z,1005.96
2019-05-18T02:46:51.712Z,1005.96
2019-05-18T02:47:51.698Z,1005.90
2019-05-18T02:48:51.708Z,1005.95
2019-05-18T02:49:51.679Z,1005.93
2019-05-18T02:50:51.664Z,1005.92
2019-05-18T02:51:51.657Z,1005.91
2019-05-18T02:52:51.651Z,1005.86
2019-05-18T02:53:51.654Z,1005.87
2019-05-18T02:54:51.617Z,1005.81
2019-05-18T02:55:51.608Z,1005.84
2019-05-18T02:56:51.598Z,1005.82
2019-05-18T02:57:51.594Z,1005.82
2019-05-18T02:58:51.590Z,1005.84
2019-05-18T02:59:51.571Z,1005.85
2019-05-18T03:00:51.563Z,1005.82
2019-05-18T03:01:51.547Z,1005.85
2019-05-18T03:02:51.542Z,1005.81
2019-05-18T03:03:51.526Z,1005.87
2019-05-18T03:04:51.526Z,1005.86
2019-05-18T03:05:51.509Z,1005.87
2019-05-18T03:06:51.573Z,1005.88
2019-05-18T03:07:51.472Z,1005.88
2019-05-18T03:08:51.485Z,1005.86
2019-05-18T03:09:51.455Z,1005.87
2019-05-18T03:10:51.456Z,1005.82
2019-05-18T03:11:51.439Z,1005.81
2019-05-18T03:12:51.423Z,1005.79
2019-05-18T03:13:51.433Z,1005.88
2019-05-18T03:14:51.396Z,1005.85
2019-05-18T03:15:51.391Z,1005.86
2019-05-18T03:16:51.383Z,1005.84
2019-05-18T03:17:51.374Z,1005.84
2019-05-18T03:19:06.788Z,1005.84
2019-05-18T03:19:52.357Z,1005.87
2019-05-18T03:20:51.325Z,1005.90
2019-05-18T03:21:51.326Z,1005.83
2019-05-18T03:22:51.319Z,1005.91
2019-05-18T03:23:51.310Z,1005.89
2019-05-18T03:24:51.296Z,1005.89
2019-05-18T03:25:51.276Z,1005.93
2019-05-18T03:26:51.263Z,1005.92
2019-05-18T03:27:51.261Z,1005.92
2019-05-18T03:28:51.263Z,1005.90
2019-05-18T03:29:51.235Z,1005.93
2019-05-18T03:30:51.220Z,1005.97
2019-05-18T03:31:51.223Z,1005.95
2019-05-18T03:32:51.344Z,1006.01
2019-05-18T03:33:51.220Z,1005.96
2019-05-18T03:34:51.176Z,1005.95
2019-05-18T03:35:51.193Z,1005.99
2019-05-18T03:36:51.153Z,1005.90
2019-05-18T03:37:51.151Z,1005.94
2019-05-18T03:38:51.150Z,1005.94
2019-05-18T03:39:51.118Z,1005.88
2019-05-18T03:40:51.127Z,1005.87
2019-05-18T03:41:51.096Z,1005.87
2019-05-18T03:42:51.087Z,1005.90
2019-05-18T03:43:51.097Z,1005.91
2019-05-18T03:44:51.074Z,1005.89
2019-05-18T03:45:51.067Z,1005.86
2019-05-18T03:46:51.045Z,1005.90
2019-05-18T03:47:51.036Z,1005.90
2019-05-18T03:48:51.057Z,1005.87
2019-05-18T03:49:51.018Z,1005.87
2019-05-18T03:50:51.011Z,1005.88
2019-05-18T03:51:50.999Z,1005.93
2019-05-18T03:52:51.007Z,1005.89
2019-05-18T03:53:51.008Z,1005.92
2019-05-18T03:54:50.967Z,1005.93
2019-05-18T03:55:50.964Z,1005.83
2019-05-18T03:56:50.949Z,1005.83
2019-05-18T03:57:50.932Z,1005.89
2019-05-18T03:58:50.941Z,1005.83
2019-05-18T03:59:50.913Z,1005.82
2019-05-18T04:00:50.888Z,1005.80
2019-05-18T04:01:50.887Z,1005.81
2019-05-18T04:02:50.891Z,1005.90
2019-05-18T04:03:50.875Z,1005.87
2019-05-18T04:04:50.854Z,1005.91
2019-05-18T04:05:50.841Z,1005.92
2019-05-18T04:06:50.828Z,1005.90
2019-05-18T04:07:50.823Z,1005.93
2019-05-18T04:08:50.856Z,1005.84
2019-05-18T04:09:50.807Z,1005.87
2019-05-18T04:10:50.785Z,1005.91
2019-05-18T04:11:50.779Z,1005.88
2019-05-18T04:12:50.763Z,1005.81
2019-05-18T04:13:50.771Z,1005.80
2019-05-18T04:14:50.733Z,1005.83
2019-05-18T04:15:50.746Z,1005.82
2019-05-18T04:16:50.720Z,1005.80
2019-05-18T04:17:50.706Z,1005.83
2019-05-18T04:18:50.778Z,1005.79
2019-05-18T04:19:50.682Z,1005.81
2019-05-18T04:20:50.676Z,1005.84
2019-05-18T04:21:50.668Z,1005.80
2019-05-18T04:22:50.659Z,1005.81
2019-05-18T04:23:50.682Z,1005.82
2019-05-18T04:24:50.636Z,1005.78
2019-05-18T04:25:50.618Z,1005.73
2019-05-18T04:26:50.682Z,1005.78
2019-05-18T04:27:50.606Z,1005.68
2019-05-18T04:28:50.590Z,1005.68
2019-05-18T04:29:50.597Z,1005.73
2019-05-18T04:30:50.575Z,1005.70
2019-05-18T04:31:50.564Z,1005.76
2019-05-18T04:32:50.551Z,1005.76
2019-05-18T04:33:50.536Z,1005.73
2019-05-18T04:34:50.540Z,1005.78
2019-05-18T04:35:50.540Z,1005.77
2019-05-18T04:36:50.516Z,1005.72
2019-05-18T04:37:50.508Z,1005.74
2019-05-18T04:38:50.493Z,1005.80
2019-05-18T04:39:50.490Z,1005.77
2019-05-18T04:40:50.461Z,1005.75
2019-05-18T04:41:50.459Z,1005.71
2019-05-18T04:42:50.458Z,1005.79
2019-05-18T04:43:50.435Z,1005.71
2019-05-18T04:44:50.432Z,1005.81
2019-05-18T04:45:50.433Z,1005.80
2019-05-18T04:46:50.394Z,1005.71
2019-05-18T04:47:50.396Z,1005.81
2019-05-18T04:48:50.385Z,1005.77
2019-05-18T04:50:04.451Z,1005.77
2019-05-18T04:50:51.356Z,1005.86
2019-05-18T04:51:50.343Z,1005.82
2019-05-18T04:52:50.330Z,1005.85
2019-05-18T04:53:50.329Z,1005.85
2019-05-18T04:54:50.339Z,1005.76
2019-05-18T04:55:50.298Z,1005.86
2019-05-18T04:56:50.286Z,1005.88
2019-05-18T04:57:50.285Z,1005.89
2019-05-18T04:58:50.267Z,1005.94
2019-05-18T04:59:50.275Z,1005.86
2019-05-18T05:00:50.235Z,1005.86
2019-05-18T05:01:50.240Z,1005.82
2019-05-18T05:02:50.271Z,1005.86
2019-05-18T05:03:50.205Z,1005.83
2019-05-18T05:04:53.937Z,1005.84
2019-05-18T05:05:51.191Z,1005.83
2019-05-18T05:06:50.177Z,1005.86
2019-05-18T05:07:50.173Z,1005.80
2019-05-18T05:08:50.200Z,1005.77
2019-05-18T05:09:50.167Z,1005.79
2019-05-18T05:10:50.136Z,1005.77
2019-05-18T05:11:50.135Z,1005.69
2019-05-18T05:12:50.110Z,1005.72
2019-05-18T05:13:50.096Z,1005.75
2019-05-18T05:14:50.099Z,1005.78
2019-05-18T05:15:50.082Z,1005.77
2019-05-18T05:16:50.078Z,1005.74
2019-05-18T05:17:50.056Z,1005.74
2019-05-18T05:18:50.053Z,1005.78
2019-05-18T05:19:50.084Z,1005.78
2019-05-18T05:20:50.022Z,1005.78
2019-05-18T05:21:50.008Z,1005.85
2019-05-18T05:22:50.004Z,1005.82
2019-05-18T05:23:49.998Z,1005.83
2019-05-18T05:24:50.016Z,1005.81
2019-05-18T05:25:49.971Z,1005.76
2019-05-18T05:26:49.967Z,1005.75
2019-05-18T05:27:49.967Z,1005.84
2019-05-18T05:28:49.932Z,1005.80
2019-05-18T05:29:49.932Z,1005.78
2019-05-18T05:30:49.914Z,1005.81
2019-05-18T05:31:49.909Z,1005.80
2019-05-18T05:32:49.890Z,1005.78
2019-05-18T05:33:49.882Z,1005.80
2019-05-18T05:34:49.885Z,1005.81
2019-05-18T05:35:49.866Z,1005.86
2019-05-18T05:36:49.846Z,1005.82
2019-05-18T05:37:49.834Z,1005.80
2019-05-18T05:38:49.826Z,1005.92
2019-05-18T05:39:49.830Z,1005.92
2019-05-18T05:40:49.803Z,1005.89
2019-05-18T05:41:49.792Z,1005.94
2019-05-18T05:42:49.782Z,1005.88
2019-05-18T05:43:49.786Z,1005.95
2019-05-18T05:44:49.765Z,1005.88
2019-05-18T05:45:49.751Z,1005.94
2019-05-18T05:46:49.743Z,1005.95
2019-05-18T05:47:49.724Z,1005.91
2019-05-18T05:48:49.713Z,1005.98
2019-05-18T05:49:49.717Z,1005.88
2019-05-18T05:50:49.694Z,1005.96
2019-05-18T05:51:49.699Z,1005.91
2019-05-18T05:52:49.669Z,1005.94
2019-05-18T05:53:49.662Z,1005.92
2019-05-18T05:54:49.667Z,1005.95
2019-05-18T05:55:49.643Z,1005.95
2019-05-18T05:56:49.633Z,1005.98
2019-05-18T05:57:49.619Z,1005.98
2019-05-18T05:58:49.611Z,1006.01
2019-05-18T05:59:49.611Z,1006.02
2019-05-18T06:00:49.591Z,1006.02
2019-05-18T06:01:49.574Z,1006.01
2019-05-18T06:02:49.575Z,1006.03
2019-05-18T06:03:49.553Z,1006.09
2019-05-18T06:04:49.559Z,1005.97
2019-05-18T06:05:49.591Z,1006.03
2019-05-18T06:06:49.521Z,1006.06
2019-05-18T06:07:49.509Z,1006.03
2019-05-18T06:08:49.514Z,1006.09
2019-05-18T06:09:49.503Z,1006.12
2019-05-18T06:10:49.477Z,1006.10
2019-05-18T06:11:49.483Z,1006.12
2019-05-18T06:12:49.453Z,1006.14
2019-05-18T06:13:49.443Z,1006.11
2019-05-18T06:14:49.451Z,1006.09
2019-05-18T06:15:49.431Z,1006.13
2019-05-18T06:16:49.419Z,1006.07
2019-05-18T06:17:49.399Z,1006.06
2019-05-18T06:18:49.457Z,1006.09
2019-05-18T06:19:49.389Z,1006.10
2019-05-18T06:20:51.886Z,1006.13
2019-05-18T06:21:49.358Z,1006.13
2019-05-18T06:22:49.347Z,1006.11
2019-05-18T06:23:49.338Z,1006.05
2019-05-18T06:24:49.388Z,1006.11
2019-05-18T06:25:49.316Z,1006.12
2019-05-18T06:26:49.305Z,1006.13
2019-05-18T06:27:49.292Z,1006.14
2019-05-18T06:28:49.295Z,1006.13
2019-05-18T06:29:49.271Z,1006.11
2019-05-18T06:30:49.273Z,1006.12
2019-05-18T06:31:49.261Z,1006.10
2019-05-18T06:32:49.240Z,1006.16
2019-05-18T06:33:49.228Z,1006.10
2019-05-18T06:34:49.215Z,1006.09
2019-05-18T06:35:49.218Z,1006.09
2019-05-18T06:36:49.196Z,1006.10
2019-05-18T06:37:49.183Z,1006.02
2019-05-18T06:38:49.172Z,1006.07
2019-05-18T06:39:49.164Z,1006.02
2019-05-18T06:40:49.168Z,1006.08
2019-05-18T06:41:49.142Z,1006.03
2019-05-18T06:42:49.134Z,1006.05
2019-05-18T06:43:49.122Z,1006.08
2019-05-18T06:44:49.114Z,1006.12
2019-05-18T06:45:49.118Z,1006.03
2019-05-18T06:46:49.090Z,1006.09
2019-05-18T06:47:49.096Z,1006.02
2019-05-18T06:48:49.070Z,1006.10
2019-05-18T06:49:49.062Z,1006.05
2019-05-18T06:50:49.074Z,1006.12
2019-05-18T06:51:49.042Z,1006.08
2019-05-18T06:52:49.029Z,1006.12
2019-05-18T06:53:49.018Z,1006.12
2019-05-18T06:54:49.010Z,1006.09
2019-05-18T06:55:49.011Z,1006.09
2019-05-18T06:56:48.986Z,1006.02
2019-05-18T06:57:48.977Z,1006.06
2019-05-18T06:58:48.970Z,1006.02
2019-05-18T06:59:48.956Z,1005.95
2019-05-18T07:00:48.966Z,1005.93
2019-05-18T07:01:48.934Z,1005.92
2019-05-18T07:02:48.923Z,1005.96
2019-05-18T07:03:48.922Z,1006.00
2019-05-18T07:04:48.902Z,1005.92
2019-05-18T07:05:48.888Z,1005.97
2019-05-18T07:06:48.897Z,1005.98
2019-05-18T07:07:48.870Z,1006.00
2019-05-18T07:08:48.862Z,1005.97
2019-05-18T07:09:48.858Z,1006.00
2019-05-18T07:10:48.840Z,1005.95
2019-05-18T07:11:48.851Z,1005.91
2019-05-18T07:12:48.822Z,1005.97
2019-05-18T07:13:48.809Z,1005.95
2019-05-18T07:14:48.797Z,1005.97
2019-05-18T07:15:48.790Z,1005.90
2019-05-18T07:16:48.790Z,1005.97
2019-05-18T07:17:48.766Z,1006.01
2019-05-18T07:18:48.757Z,1006.02
2019-05-18T07:19:48.742Z,1005.96
2019-05-18T07:20:48.736Z,1005.96
2019-05-18T07:21:48.737Z,1005.93
2019-05-18T07:22:48.711Z,1005.92
2019-05-18T07:23:48.701Z,1005.92
2019-05-18T07:24:48.691Z,1005.87
2019-05-18T07:25:48.684Z,1005.95
2019-05-18T07:26:48.693Z,1005.87
2019-05-18T07:27:48.663Z,1005.92
2019-05-18T07:28:48.652Z,1005.90
2019-05-18T07:29:48.640Z,1005.83
2019-05-18T07:30:48.629Z,1005.84
2019-05-18T07:31:48.636Z,1005.82
2019-05-18T07:32:48.612Z,1005.88
2019-05-18T07:33:48.601Z,1005.97
2019-05-18T07:34:48.589Z,1005.89
2019-05-18T07:35:48.583Z,1005.86
2019-05-18T07:36:48.585Z,1005.88
2019-05-18T07:37:48.577Z,1005.84
2019-05-18T07:38:49.185Z,1005.84
2019-05-18T07:39:48.544Z,1005.93
2019-05-18T07:40:48.530Z,1005.82
2019-05-18T07:41:48.535Z,1005.85
2019-05-18T07:42:48.519Z,1005.84
2019-05-18T07:43:48.501Z,1005.88
2019-05-18T07:44:48.488Z,1005.83
2019-05-18T07:45:48.479Z,1005.82
2019-05-18T07:46:48.484Z,1005.85
2019-05-18T07:47:48.458Z,1005.87
2019-05-18T07:48:48.456Z,1005.84
2019-05-18T07:49:48.435Z,1005.87
2019-05-18T07:50:48.426Z,1005.80
2019-05-18T07:51:48.432Z,1005.79
2019-05-18T07:52:48.408Z,1005.83
2019-05-18T07:53:48.393Z,1005.84
2019-05-18T07:54:48.385Z,1005.80
2019-05-18T07:55:48.374Z,1005.77
2019-05-18T07:56:48.372Z,1005.78
2019-05-18T07:57:48.353Z,1005.78
2019-05-18T07:58:48.342Z,1005.74
2019-05-18T07:59:48.332Z,1005.74
2019-05-18T08:00:48.321Z,1005.73
2019-05-18T08:01:48.333Z,1005.78
2019-05-18T08:02:48.300Z,1005.72
2019-05-18T08:03:48.291Z,1005.75
2019-05-18T08:04:48.280Z,1005.86
2019-05-18T08:05:48.268Z,1005.75
2019-05-18T08:06:48.265Z,1005.70
2019-05-18T08:07:48.260Z,1005.75
2019-05-18T08:08:48.258Z,1005.76
2019-05-18T08:09:48.228Z,1005.72
2019-05-18T08:10:48.215Z,1005.67
2019-05-18T08:11:48.209Z,1005.57
2019-05-18T08:12:48.216Z,1005.63
2019-05-18T08:13:48.184Z,1005.58
2019-05-18T08:14:48.174Z,1005.58
2019-05-18T08:15:48.296Z,1005.50
2019-05-18T08:16:48.150Z,1005.48
2019-05-18T08:17:48.167Z,1005.51
2019-05-18T08:18:48.136Z,1005.49
2019-05-18T08:19:48.124Z,1005.47
2019-05-18T08:20:48.112Z,1005.52
2019-05-18T08:21:53.353Z,1005.43
2019-05-18T08:22:49.116Z,1005.45
2019-05-18T08:23:48.094Z,1005.50
2019-05-18T08:24:48.074Z,1005.50
2019-05-18T08:25:48.064Z,1005.44
2019-05-18T08:26:48.048Z,1005.49
2019-05-18T08:27:48.038Z,1005.45
2019-05-18T08:28:48.046Z,1005.54
2019-05-18T08:29:48.016Z,1005.53
2019-05-18T08:30:48.007Z,1005.49
2019-05-18T08:31:47.995Z,1005.45
2019-05-18T08:32:47.984Z,1005.52
2019-05-18T08:33:47.990Z,1005.53
2019-05-18T08:34:47.963Z,1005.45
2019-05-18T08:35:47.971Z,1005.47
2019-05-18T08:36:47.940Z,1005.46
2019-05-18T08:37:47.930Z,1005.43
2019-05-18T08:38:47.938Z,1005.40
2019-05-18T08:39:47.919Z,1005.32
2019-05-18T08:40:47.901Z,1005.35
2019-05-18T08:41:48.802Z,1005.28
2019-05-18T08:42:47.873Z,1005.29
2019-05-18T08:43:47.883Z,1005.28
2019-05-18T08:44:47.853Z,1005.23
2019-05-18T08:45:47.845Z,1005.30
2019-05-18T08:46:47.844Z,1005.32
2019-05-18T08:47:47.828Z,1005.23
2019-05-18T08:48:47.826Z,1005.27
2019-05-18T08:49:47.797Z,1005.17
2019-05-18T08:50:47.806Z,1005.17
2019-05-18T08:51:47.781Z,1005.16
2019-05-18T08:52:47.771Z,1005.21
2019-05-18T08:53:47.776Z,1005.19
2019-05-18T08:54:47.747Z,1005.21
2019-05-18T08:55:47.736Z,1005.26
2019-05-18T08:56:47.723Z,1005.15
2019-05-18T08:57:47.711Z,1005.17
2019-05-18T08:58:47.725Z,1005.18
2019-05-18T08:59:47.691Z,1005.09
2019-05-18T09:00:47.679Z,1005.17
2019-05-18T09:01:47.718Z,1005.12
2019-05-18T09:02:47.657Z,1005.07
2019-05-18T09:03:47.650Z,1005.14
2019-05-18T09:04:47.645Z,1005.06
2019-05-18T09:05:47.625Z,1005.03
2019-05-18T09:06:47.610Z,1005.04
2019-05-18T09:07:47.607Z,1005.16
2019-05-18T09:08:47.610Z,1005.12
2019-05-18T09:09:47.608Z,1005.13
2019-05-18T09:10:47.565Z,1005.15
2019-05-18T09:11:47.569Z,1005.09
2019-05-18T09:12:47.546Z,1005.08
2019-05-18T09:13:47.540Z,1005.04
2019-05-18T09:14:47.556Z,1004.97
2019-05-18T09:15:47.514Z,1005.11
2019-05-18T09:16:47.506Z,1005.05
2019-05-18T09:17:47.499Z,1005.02
2019-05-18T09:18:47.491Z,1005.04
2019-05-18T09:19:47.487Z,1005.09
2019-05-18T09:20:47.460Z,1005.03
2019-05-18T09:21:47.450Z,1005.03
2019-05-18T09:22:47.446Z,1005.05
2019-05-18T09:23:47.437Z,1005.02
2019-05-18T09:24:47.435Z,1004.99
2019-05-18T09:25:47.409Z,1004.96
2019-05-18T09:26:47.411Z,1005.05
2019-05-18T09:27:47.383Z,1005.03
2019-05-18T09:28:47.373Z,1004.97
2019-05-18T09:29:47.384Z,1004.98
2019-05-18T09:30:47.355Z,1004.90
2019-05-18T09:31:47.342Z,1004.91
2019-05-18T09:32:47.338Z,1004.93
2019-05-18T09:33:47.319Z,1004.93
2019-05-18T09:34:47.329Z,1004.91
2019-05-18T09:35:47.318Z,1004.85
2019-05-18T09:36:47.292Z,1004.94
2019-05-18T09:37:47.280Z,1004.87
2019-05-18T09:38:47.280Z,1004.91
2019-05-18T09:39:47.266Z,1004.92
2019-05-18T09:40:47.256Z,1004.90
2019-05-18T09:41:47.243Z,1004.84
2019-05-18T09:42:47.218Z,1004.91
2019-05-18T09:43:47.211Z,1004.91
2019-05-18T09:44:47.220Z,1004.91
2019-05-18T09:45:47.191Z,1004.88
2019-05-18T09:46:47.184Z,1004.88
2019-05-18T09:47:47.168Z,1004.76
2019-05-18T09:48:47.156Z,1004.77
2019-05-18T09:49:47.159Z,1004.78
2019-05-18T09:50:47.135Z,1004.77
2019-05-18T09:51:47.126Z,1004.76
2019-05-18T09:52:47.118Z,1004.70
2019-05-18T09:53:51.553Z,1004.75
2019-05-18T09:54:47.122Z,1004.71
2019-05-18T09:55:47.088Z,1004.66
2019-05-18T09:56:47.068Z,1004.60
2019-05-18T09:57:47.067Z,1004.70
2019-05-18T09:58:47.048Z,1004.63
2019-05-18T09:59:47.048Z,1004.62
2019-05-18T10:00:47.044Z,1004.61
2019-05-18T10:01:47.015Z,1004.65
2019-05-18T10:02:47.005Z,1004.77
2019-05-18T10:03:46.997Z,1004.66
2019-05-18T10:04:46.983Z,1004.70
2019-05-18T10:05:46.991Z,1004.69
2019-05-18T10:06:46.962Z,1004.62
2019-05-18T10:07:47.008Z,1004.62
2019-05-18T10:08:46.942Z,1004.62
2019-05-18T10:09:46.994Z,1004.58
2019-05-18T10:10:46.949Z,1004.57
2019-05-18T10:11:46.917Z,1004.55
2019-05-18T10:12:46.903Z,1004.60
2019-05-18T10:13:46.888Z,1004.56
2019-05-18T10:14:46.877Z,1004.57
2019-05-18T10:15:46.879Z,1004.56
2019-05-18T10:16:46.861Z,1004.51
2019-05-18T10:17:46.839Z,1004.56
2019-05-18T10:18:46.835Z,1004.52
2019-05-18T10:19:46.828Z,1004.62
2019-05-18T10:20:46.829Z,1004.67
2019-05-18T10:21:46.801Z,1004.56
2019-05-18T10:22:58.990Z,1004.59
2019-05-18T10:23:47.777Z,1004.61
2019-05-18T10:24:46.779Z,1004.52
2019-05-18T10:25:46.769Z,1004.56
2019-05-18T10:26:46.743Z,1004.48
2019-05-18T10:27:46.733Z,1004.65
2019-05-18T10:28:46.721Z,1004.51
2019-05-18T10:29:46.866Z,1004.44
2019-05-18T10:30:46.713Z,1004.54
2019-05-18T10:31:46.684Z,1004.63
2019-05-18T10:32:46.678Z,1004.52
2019-05-18T10:33:46.718Z,1004.53
2019-05-18T10:34:46.664Z,1004.58
2019-05-18T10:35:46.660Z,1004.69
2019-05-18T10:36:46.635Z,1004.68
2019-05-18T10:37:46.623Z,1004.64
2019-05-18T10:38:46.608Z,1004.55
2019-05-18T10:39:46.606Z,1004.57
2019-05-18T10:40:46.610Z,1004.55
2019-05-18T10:41:46.579Z,1004.61
2019-05-18T10:42:46.568Z,1004.55
2019-05-18T10:43:46.951Z,1004.51
2019-05-18T10:44:46.550Z,1004.48
2019-05-18T10:45:46.557Z,1004.38
2019-05-18T10:46:46.526Z,1004.33
2019-05-18T10:47:46.517Z,1004.37
2019-05-18T10:48:46.506Z,1004.28
2019-05-18T10:49:46.495Z,1004.35
2019-05-18T10:50:46.507Z,1004.41
2019-05-18T10:51:46.477Z,1004.50
2019-05-18T10:52:46.462Z,1004.19
2019-05-18T10:53:46.452Z,1004.43
2019-05-18T10:54:46.440Z,1004.22
2019-05-18T10:55:46.460Z,1004.22
2019-05-18T10:56:46.423Z,1004.24
2019-05-18T10:57:46.414Z,1004.34
2019-05-18T10:58:46.416Z,1004.17
2019-05-18T10:59:46.386Z,1004.07
2019-05-18T11:00:46.382Z,1004.08
2019-05-18T11:01:46.392Z,1004.46
2019-05-18T11:02:46.358Z,1004.44
2019-05-18T11:03:46.348Z,1004.18
2019-05-18T11:04:46.340Z,1004.26
2019-05-18T11:05:46.332Z,1004.29
2019-05-18T11:06:46.330Z,1004.43
2019-05-18T11:07:46.310Z,1004.46
2019-05-18T11:08:46.298Z,1004.38
2019-05-18T11:09:46.293Z,1004.34
2019-05-18T11:10:46.279Z,1004.31
2019-05-18T11:11:46.281Z,1004.10
2019-05-18T11:12:46.254Z,1004.36
2019-05-18T11:13:46.251Z,1004.31
2019-05-18T11:14:46.247Z,1004.33
2019-05-18T11:15:46.225Z,1004.31
2019-05-18T11:16:46.231Z,1003.90
2019-05-18T11:17:46.208Z,1004.36
2019-05-18T11:18:46.193Z,1004.37
2019-05-18T11:19:46.181Z,1004.35
2019-05-18T11:20:46.177Z,1004.30
2019-05-18T11:21:46.179Z,1004.37
2019-05-18T11:22:46.160Z,1004.33
2019-05-18T11:23:48.124Z,1004.20
2019-05-18T11:24:46.134Z,1004.28
2019-05-18T11:25:46.129Z,1004.24
2019-05-18T11:26:46.127Z,1003.94
2019-05-18T11:27:46.107Z,1003.92
2019-05-18T11:28:46.097Z,1004.26
2019-05-18T11:29:46.083Z,1004.29
2019-05-18T11:30:46.071Z,1004.33
2019-05-18T11:31:46.077Z,1004.33
2019-05-18T11:32:46.053Z,1003.83
2019-05-18T11:33:46.045Z,1003.84
2019-05-18T11:34:46.035Z,1003.94
2019-05-18T11:35:46.020Z,1003.98
2019-05-18T11:36:46.027Z,1003.97
2019-05-18T11:37:46.003Z,1004.31
2019-05-18T11:38:45.995Z,1003.90
2019-05-18T11:39:45.983Z,1003.97
2019-05-18T11:40:45.973Z,1004.13
2019-05-18T11:41:45.979Z,1004.31
2019-05-18T11:42:45.956Z,1004.27
2019-05-18T11:43:45.941Z,1003.98
2019-05-18T11:44:45.943Z,1004.35
2019-05-18T11:45:45.920Z,1003.95
2019-05-18T11:46:45.961Z,1003.91
2019-05-18T11:47:45.900Z,1003.89
2019-05-18T11:48:45.894Z,1004.33
2019-05-18T11:49:45.881Z,1004.33
2019-05-18T11:50:45.870Z,1004.25
2019-05-18T11:51:45.861Z,1004.27
2019-05-18T11:52:45.867Z,1004.25
2019-05-18T11:53:57.491Z,1004.19
2019-05-18T11:54:46.828Z,1004.18
2019-05-18T11:55:45.825Z,1004.23
2019-05-18T11:56:45.813Z,1004.20
2019-05-18T11:57:45.830Z,1004.21
2019-05-18T11:58:45.791Z,1004.17
2019-05-18T11:59:45.780Z,1004.27
2019-05-18T12:00:45.780Z,1004.05
2019-05-18T12:01:45.766Z,1004.16
2019-05-18T12:02:45.764Z,1004.22
2019-05-18T12:03:45.742Z,1004.24
2019-05-18T12:04:48.655Z,1004.16
2019-05-18T12:05:45.722Z,1004.13